createdAt,value
2022-12-18T00:01:15.404Z,67.05
2022-12-18T00:03:42.479Z,67.30
2022-12-18T00:06:10.138Z,65.07
2022-12-18T00:08:36.939Z,64.28
2022-12-18T00:11:13.202Z,71.40
2022-12-18T00:13:40.572Z,67.43
2022-12-18T00:16:10.679Z,68.45
2022-12-18T00:18:38.255Z,59.92
2022-12-18T00:21:07.774Z,57.78
2022-12-18T00:23:36.258Z,59.60
2022-12-18T00:26:06.940Z,62.30
2022-12-18T00:28:34.104Z,63.20
2022-12-18T00:31:05.522Z,67.30
2022-12-18T00:33:32.812Z,70.07
2022-12-18T00:36:08.218Z,61.10
2022-12-18T00:38:36.029Z,61.97
2022-12-18T00:41:02.931Z,70.50
2022-12-18T00:43:29.598Z,70.45
2022-12-18T00:45:56.295Z,63.10
2022-12-18T00:48:23.085Z,66.63
2022-12-18T00:50:50.890Z,63.45
2022-12-18T00:53:17.609Z,73.38
2022-12-18T00:55:45.047Z,68.65
2022-12-18T00:58:12.423Z,66.70
2022-12-18T01:00:39.172Z,65.30
2022-12-18T01:03:06.577Z,73.78
2022-12-18T01:05:33.903Z,66.95
2022-12-18T01:08:00.945Z,66.78
2022-12-18T01:10:27.734Z,64.68
2022-12-18T01:12:54.355Z,71.75
2022-12-18T01:15:21.493Z,63.95
2022-12-18T01:17:48.112Z,69.40
2022-12-18T01:20:14.969Z,72.13
2022-12-18T01:22:41.487Z,66.53
2022-12-18T01:25:08.750Z,68.13
2022-12-18T01:27:35.517Z,69.88
2022-12-18T01:30:02.240Z,63.97
2022-12-18T01:32:32.289Z,68.90
2022-12-18T01:34:58.918Z,63.25
2022-12-18T01:37:25.476Z,74.57
2022-12-18T01:39:55.328Z,67.82
2022-12-18T01:42:23.087Z,70.07
2022-12-18T01:45:06.192Z,77.40
2022-12-18T01:47:39.971Z,80.72
2022-12-18T01:50:11.492Z,72.00
2022-12-18T01:52:43.690Z,61.65
2022-12-18T01:55:12.155Z,64.68
2022-12-18T01:57:41.403Z,67.25
2022-12-18T02:00:20.148Z,66.07
2022-12-18T02:02:48.037Z,75.47
2022-12-18T02:05:40.228Z,77.22
2022-12-18T02:08:13.943Z,61.88
2022-12-18T02:10:49.731Z,63.15
2022-12-18T02:13:29.040Z,63.55
2022-12-18T02:16:17.381Z,70.15
2022-12-18T02:18:49.313Z,65.93
2022-12-18T02:21:36.217Z,70.55
2022-12-18T02:24:17.950Z,63.28
2022-12-18T02:26:58.196Z,72.25
2022-12-18T02:29:36.577Z,69.28
2022-12-18T02:32:08.482Z,61.92
2022-12-18T02:34:39.185Z,69.63
2022-12-18T02:37:12.272Z,62.63
2022-12-18T02:39:42.754Z,68.03
2022-12-18T02:42:09.859Z,73.43
2022-12-18T02:44:45.564Z,59.17
2022-12-18T02:47:13.825Z,65.10
2022-12-18T02:49:58.919Z,73.72
2022-12-18T02:52:31.525Z,69.93
2022-12-18T02:55:01.005Z,76.20
2022-12-18T02:57:57.632Z,75.53
2022-12-18T03:00:32.012Z,77.65
2022-12-18T03:03:04.483Z,54.63
2022-12-18T03:05:54.715Z,75.75
2022-12-18T03:08:28.980Z,74.32
2022-12-18T03:11:10.925Z,71.57
2022-12-18T03:13:43.663Z,70.63
2022-12-18T03:16:16.019Z,73.78
2022-12-18T03:18:55.754Z,72.28
2022-12-18T03:21:31.094Z,66.78
2022-12-18T03:23:58.175Z,66.90
2022-12-18T03:26:27.838Z,67.72
2022-12-18T03:29:00.944Z,58.75
2022-12-18T03:31:30.709Z,58.80
2022-12-18T03:34:02.361Z,71.60
2022-12-18T03:36:32.675Z,70.65
2022-12-18T03:38:59.407Z,65.50
2022-12-18T03:41:32.088Z,70.28
2022-12-18T03:44:11.944Z,66.45
2022-12-18T03:47:02.861Z,70.30
2022-12-18T03:49:52.840Z,68.90
2022-12-18T03:52:27.757Z,76.28
2022-12-18T03:57:26.468Z,77.85
2022-12-18T03:59:58.533Z,78.55
2022-12-18T04:02:26.298Z,64.90
2022-12-18T04:05:00.716Z,61.35
2022-12-18T04:07:28.436Z,61.85
2022-12-18T04:09:59.351Z,64.72
2022-12-18T04:12:29.810Z,70.82
2022-12-18T04:14:56.661Z,57.65
2022-12-18T04:17:23.679Z,71.60
2022-12-18T04:19:50.589Z,80.05
2022-12-18T04:22:17.399Z,64.28
2022-12-18T04:24:44.242Z,59.67
2022-12-18T04:27:10.812Z,64.75
2022-12-18T04:29:37.344Z,65.15
2022-12-18T04:32:03.936Z,63.25
2022-12-18T04:34:30.518Z,59.33
2022-12-18T04:36:57.582Z,62.15
2022-12-18T04:39:24.283Z,79.60
2022-12-18T04:41:51.587Z,72.72
2022-12-18T04:44:18.301Z,67.53
2022-12-18T04:46:44.935Z,64.20
2022-12-18T04:49:11.830Z,64.45
2022-12-18T04:51:39.354Z,64.78
2022-12-18T04:54:05.992Z,77.93
2022-12-18T04:56:33.115Z,63.15
2022-12-18T04:58:59.684Z,60.15
2022-12-18T05:01:32.573Z,61.42
2022-12-18T05:04:01.572Z,58.90
2022-12-18T05:06:28.389Z,68.88
2022-12-18T05:08:54.980Z,67.75
2022-12-18T05:11:21.575Z,58.38
2022-12-18T05:13:48.490Z,60.25
2022-12-18T05:16:15.766Z,60.40
2022-12-18T05:18:42.908Z,62.35
2022-12-18T05:21:09.728Z,62.08
2022-12-18T05:23:37.115Z,57.38
2022-12-18T05:26:06.467Z,52.88
2022-12-18T05:28:35.499Z,54.97
2022-12-18T05:31:04.257Z,63.95
2022-12-18T05:33:34.168Z,57.35
2022-12-18T05:36:02.952Z,56.25
2022-12-18T05:38:31.007Z,61.05
2022-12-18T05:40:57.859Z,63.92
2022-12-18T05:43:26.414Z,57.22
2022-12-18T05:45:54.022Z,62.63
2022-12-18T05:48:21.146Z,63.20
2022-12-18T05:50:49.573Z,55.97
2022-12-18T05:53:18.219Z,63.83
2022-12-18T05:55:45.570Z,59.28
2022-12-18T05:58:13.827Z,65.40
2022-12-18T06:00:45.915Z,76.72
2022-12-18T06:03:14.723Z,63.88
2022-12-18T06:05:44.567Z,62.00
2022-12-18T06:08:12.552Z,69.93
2022-12-18T06:10:39.660Z,67.85
2022-12-18T06:13:07.064Z,74.45
2022-12-18T06:15:34.008Z,63.50
2022-12-18T06:18:02.031Z,67.45
2022-12-18T06:20:33.665Z,75.95
2022-12-18T06:23:00.831Z,68.00
2022-12-18T06:25:27.405Z,61.30
2022-12-18T06:27:54.060Z,74.93
2022-12-18T06:30:20.815Z,73.65
2022-12-18T06:32:54.654Z,76.60
2022-12-18T06:35:23.620Z,66.65
2022-12-18T06:37:50.252Z,51.97
2022-12-18T06:40:17.347Z,66.85
2022-12-18T06:42:43.999Z,66.90
2022-12-18T06:45:11.033Z,70.72
2022-12-18T06:47:37.666Z,55.47
2022-12-18T06:50:04.411Z,68.13
2022-12-18T06:52:33.401Z,66.97
2022-12-18T06:55:00.223Z,66.78
2022-12-18T06:57:26.846Z,67.13
2022-12-18T06:59:53.593Z,63.78
2022-12-18T07:02:20.255Z,74.63
2022-12-18T07:04:46.970Z,68.38
2022-12-18T07:07:13.563Z,71.40
2022-12-18T07:09:40.208Z,75.53
2022-12-18T07:12:07.835Z,72.28
2022-12-18T07:14:34.603Z,60.78
2022-12-18T07:17:01.313Z,65.45
2022-12-18T07:19:28.153Z,66.90
2022-12-18T07:21:55.852Z,62.65
2022-12-18T07:24:22.430Z,72.88
2022-12-18T07:26:49.060Z,65.38
2022-12-18T07:29:15.827Z,66.15
2022-12-18T07:31:42.600Z,70.63
2022-12-18T07:34:13.827Z,62.53
2022-12-18T07:36:40.396Z,65.75
2022-12-18T07:39:07.080Z,64.57
2022-12-18T07:41:33.676Z,67.57
2022-12-18T07:44:00.458Z,64.50
2022-12-18T07:46:27.015Z,56.30
2022-12-18T07:48:53.622Z,66.43
2022-12-18T07:51:20.299Z,63.28
2022-12-18T07:53:48.793Z,64.05
2022-12-18T07:56:28.572Z,54.13
2022-12-18T07:58:56.460Z,64.28
2022-12-18T08:01:26.665Z,85.82
2022-12-18T08:03:53.546Z,64.03
2022-12-18T08:06:22.433Z,63.42
2022-12-18T08:08:52.398Z,75.10
2022-12-18T08:11:20.407Z,69.35
2022-12-18T08:13:48.274Z,68.55
2022-12-18T08:16:15.716Z,64.40
2022-12-18T08:18:42.368Z,65.30
2022-12-18T08:21:19.166Z,68.00
2022-12-18T08:23:50.298Z,58.17
2022-12-18T08:26:18.612Z,63.90
2022-12-18T08:28:45.847Z,67.60
2022-12-18T08:31:12.824Z,61.42
2022-12-18T08:33:40.422Z,54.58
2022-12-18T08:36:10.106Z,62.60
2022-12-18T08:38:36.898Z,60.85
2022-12-18T08:41:08.444Z,60.90
2022-12-18T08:43:53.752Z,62.03
2022-12-18T08:46:22.352Z,57.22
2022-12-18T08:48:51.244Z,71.75
2022-12-18T08:51:18.600Z,60.92
2022-12-18T08:53:45.635Z,63.78
2022-12-18T08:56:15.853Z,68.20
2022-12-18T08:58:43.341Z,70.80
2022-12-18T09:01:11.915Z,70.38
2022-12-18T09:03:39.755Z,72.03
2022-12-18T09:06:07.104Z,55.53
2022-12-18T09:08:38.032Z,65.40
2022-12-18T09:11:05.096Z,63.90
2022-12-18T09:13:32.143Z,70.00
2022-12-18T09:15:59.215Z,74.55
2022-12-18T09:18:26.119Z,58.53
2022-12-18T09:20:53.910Z,65.70
2022-12-18T09:23:23.992Z,56.50
2022-12-18T09:25:50.555Z,59.17
2022-12-18T09:28:19.201Z,54.83
2022-12-18T09:30:50.951Z,67.40
2022-12-18T09:33:18.438Z,61.90
2022-12-18T09:35:48.167Z,72.28
2022-12-18T09:38:18.899Z,66.35
2022-12-18T09:40:50.352Z,63.67
2022-12-18T09:43:39.764Z,60.60
2022-12-18T09:46:11.384Z,63.97
2022-12-18T09:48:45.199Z,68.47
2022-12-18T09:51:20.077Z,65.93
2022-12-18T09:53:56.739Z,66.82
2022-12-18T09:56:25.985Z,53.72
2022-12-18T09:59:00.957Z,60.15
2022-12-18T10:01:36.356Z,73.63
2022-12-18T10:04:10.678Z,71.18
2022-12-18T10:06:48.787Z,64.45
2022-12-18T10:09:45.779Z,62.17
2022-12-18T10:12:15.427Z,76.03
2022-12-18T10:14:58.318Z,61.85
2022-12-18T10:18:06.660Z,67.00
2022-12-18T10:20:47.350Z,59.38
2022-12-18T10:23:38.049Z,72.63
2022-12-18T10:26:10.518Z,69.03
2022-12-18T10:28:40.338Z,69.88
2022-12-18T10:31:25.069Z,73.65
2022-12-18T10:33:54.712Z,77.00
2022-12-18T10:36:22.372Z,74.70
2022-12-18T10:38:50.728Z,69.25
2022-12-18T10:41:21.766Z,76.13
2022-12-18T10:43:48.943Z,62.88
2022-12-18T10:46:20.796Z,62.03
2022-12-18T10:48:47.397Z,67.22
2022-12-18T10:51:34.474Z,82.47
2022-12-18T10:54:27.278Z,76.43
2022-12-18T10:57:17.621Z,77.82
2022-12-18T10:59:56.599Z,79.60
2022-12-18T11:02:36.196Z,76.32
2022-12-18T11:05:06.329Z,66.80
2022-12-18T11:07:51.689Z,59.58
2022-12-18T11:10:20.026Z,74.45
2022-12-18T11:12:47.566Z,71.28
2022-12-18T11:15:25.635Z,72.97
2022-12-18T11:17:53.045Z,63.63
2022-12-18T11:20:36.782Z,80.55
2022-12-18T11:23:07.079Z,78.38
2022-12-18T11:25:35.967Z,74.55
2022-12-18T11:28:26.805Z,74.68
2022-12-18T11:31:16.568Z,70.30
2022-12-18T11:34:26.987Z,71.60
2022-12-18T11:36:49.136Z,68.93
2022-12-18T11:39:47.397Z,71.60
2022-12-18T11:42:19.526Z,60.45
2022-12-18T11:44:59.265Z,66.90
2022-12-18T11:47:44.082Z,66.75
2022-12-18T11:50:35.191Z,58.47
2022-12-18T11:53:06.150Z,65.47
2022-12-18T11:56:21.838Z,63.58
2022-12-18T11:59:09.569Z,62.70
2022-12-18T12:01:44.287Z,74.15
2022-12-18T12:04:24.490Z,68.07
2022-12-18T12:07:04.062Z,71.13
2022-12-18T12:09:48.724Z,72.45
2022-12-18T12:12:48.629Z,76.68
2022-12-18T12:15:25.087Z,70.10
2022-12-18T12:18:00.596Z,60.63
2022-12-18T12:20:45.699Z,61.50
2022-12-18T12:23:17.927Z,66.65
2022-12-18T12:25:47.722Z,60.58
2022-12-18T12:28:25.746Z,69.68
2022-12-18T12:31:19.747Z,65.93
2022-12-18T12:34:01.634Z,57.70
2022-12-18T12:36:56.660Z,59.17
2022-12-18T12:39:30.948Z,57.50
2022-12-18T12:42:17.171Z,59.90
2022-12-18T12:44:57.111Z,58.25
2022-12-18T12:47:40.172Z,68.03
2022-12-18T12:50:15.562Z,61.83
2022-12-18T12:52:50.527Z,61.95
2022-12-18T12:55:23.788Z,70.13
2022-12-18T12:57:55.039Z,63.28
2022-12-18T13:00:23.238Z,72.85
2022-12-18T13:02:52.482Z,74.15
2022-12-18T13:05:44.520Z,64.28
2022-12-18T13:08:22.931Z,58.88
2022-12-18T13:11:11.174Z,59.65
2022-12-18T13:13:55.374Z,54.38
2022-12-18T13:16:28.573Z,53.67
2022-12-18T13:19:00.367Z,65.88
2022-12-18T13:21:30.325Z,58.10
2022-12-18T13:23:58.358Z,54.72
2022-12-18T13:26:28.727Z,57.03
2022-12-18T13:28:57.959Z,65.15
2022-12-18T13:31:30.914Z,67.78
2022-12-18T13:34:28.048Z,59.95
2022-12-18T13:36:56.689Z,61.58
2022-12-18T13:39:35.028Z,69.72
2022-12-18T13:42:08.637Z,57.45
2022-12-18T13:44:40.838Z,72.35
2022-12-18T13:47:29.826Z,63.08
2022-12-18T13:49:57.557Z,76.00
2022-12-18T13:52:28.602Z,68.05
2022-12-18T13:55:01.513Z,70.40
2022-12-18T13:57:34.182Z,55.53
2022-12-18T14:00:24.165Z,71.03
2022-12-18T14:02:51.830Z,62.42
2022-12-18T14:05:36.837Z,59.03
2022-12-18T14:08:14.846Z,60.50
2022-12-18T14:10:49.521Z,62.22
2022-12-18T14:16:06.863Z,70.20
2022-12-18T14:18:45.245Z,73.30
2022-12-18T14:21:30.415Z,66.95
2022-12-18T14:24:15.232Z,87.45
2022-12-18T14:26:45.667Z,81.88
2022-12-18T14:29:44.037Z,81.15
2022-12-18T14:32:19.567Z,75.75
2022-12-18T14:34:51.385Z,68.60
2022-12-18T14:37:28.507Z,74.13
2022-12-18T14:40:10.492Z,72.40
2022-12-18T14:42:38.488Z,66.93
2022-12-18T14:45:40.939Z,77.40
2022-12-18T14:48:13.787Z,72.20
2022-12-18T14:50:42.877Z,79.20
2022-12-18T14:53:22.744Z,84.28
2022-12-18T14:55:50.046Z,62.05
2022-12-18T14:58:20.011Z,75.00
2022-12-18T15:00:46.823Z,68.43
2022-12-18T15:03:20.005Z,71.50
2022-12-18T15:05:47.404Z,72.03
2022-12-18T15:08:36.572Z,72.72
2022-12-18T15:11:05.621Z,79.28
2022-12-18T15:13:35.627Z,64.70
2022-12-18T15:16:04.277Z,74.18
2022-12-18T15:18:42.552Z,73.32
2022-12-18T15:21:11.853Z,70.20
2022-12-18T15:23:44.808Z,75.65
2022-12-18T15:26:14.405Z,80.07
2022-12-18T15:28:59.547Z,74.45
2022-12-18T15:31:36.306Z,75.47
2022-12-18T15:34:10.891Z,68.80
2022-12-18T15:36:37.614Z,70.10
2022-12-18T15:39:06.875Z,71.50
2022-12-18T15:41:35.841Z,73.43
2022-12-18T15:44:03.840Z,70.35
2022-12-18T15:46:31.735Z,67.22
2022-12-18T15:49:02.642Z,69.85
2022-12-18T15:51:34.275Z,86.82
2022-12-18T15:54:04.941Z,79.95
2022-12-18T15:56:50.891Z,72.45
2022-12-18T15:59:20.230Z,71.68
2022-12-18T16:01:53.927Z,81.78
2022-12-18T16:04:22.357Z,78.45
2022-12-18T16:09:37.618Z,75.22
2022-12-18T16:12:04.339Z,78.00
2022-12-18T16:14:31.870Z,82.57
2022-12-18T16:17:01.339Z,78.85
2022-12-18T16:19:28.632Z,78.00
2022-12-18T16:21:57.776Z,93.38
2022-12-18T16:24:27.235Z,82.15
2022-12-18T16:26:55.000Z,87.18
2022-12-18T16:29:25.844Z,90.93
2022-12-18T16:31:53.145Z,90.03
2022-12-18T16:34:35.805Z,85.68
2022-12-18T16:37:08.311Z,79.50
2022-12-18T16:39:35.985Z,84.47
2022-12-18T16:42:06.024Z,83.82
2022-12-18T16:44:33.903Z,80.78
2022-12-18T16:47:03.418Z,85.40
2022-12-18T16:49:30.387Z,85.68
2022-12-18T16:51:57.309Z,83.90
2022-12-18T16:54:24.078Z,89.18
2022-12-18T16:56:53.828Z,85.72
2022-12-18T16:59:20.466Z,80.63
2022-12-18T17:01:47.760Z,78.07
2022-12-18T17:04:15.269Z,93.95
2022-12-18T17:06:44.085Z,92.68
2022-12-18T17:09:16.442Z,84.25
2022-12-18T17:11:43.811Z,80.00
2022-12-18T17:14:15.915Z,88.22
2022-12-18T17:16:43.021Z,81.05
2022-12-18T17:19:16.662Z,83.55
2022-12-18T17:21:45.611Z,88.80
2022-12-18T17:24:12.422Z,78.30
2022-12-18T17:26:39.104Z,97.90
2022-12-18T17:29:15.517Z,93.90
2022-12-18T17:31:42.956Z,85.85
2022-12-18T17:34:14.711Z,91.45
2022-12-18T17:36:42.320Z,82.57
2022-12-18T17:39:16.563Z,85.38
2022-12-18T17:41:43.465Z,86.40
2022-12-18T17:44:10.495Z,88.40
2022-12-18T17:46:37.138Z,86.57
2022-12-18T17:49:04.693Z,81.40
2022-12-18T17:51:31.319Z,81.40
2022-12-18T17:53:58.303Z,85.07
2022-12-18T17:56:28.424Z,86.35
2022-12-18T17:58:55.558Z,81.45
2022-12-18T18:01:24.924Z,87.05
2022-12-18T18:03:53.521Z,86.80
2022-12-18T18:06:21.186Z,88.47
2022-12-18T18:08:48.291Z,77.30
2022-12-18T18:11:36.264Z,92.65
2022-12-18T18:14:07.091Z,86.60
2022-12-18T18:16:37.119Z,91.30
2022-12-18T18:19:09.401Z,90.40
2022-12-18T18:21:39.295Z,79.57
2022-12-18T18:24:07.339Z,96.80
2022-12-18T18:26:35.545Z,93.60
2022-12-18T18:29:05.223Z,91.65
2022-12-18T18:31:35.255Z,91.13
2022-12-18T18:34:08.203Z,105.38
2022-12-18T18:36:34.964Z,88.35
2022-12-18T18:39:02.500Z,121.18
2022-12-18T18:41:30.625Z,115.13
2022-12-18T18:43:58.231Z,92.50
2022-12-18T18:46:25.751Z,83.45
2022-12-18T18:48:52.439Z,105.80
2022-12-18T18:51:21.513Z,93.88
2022-12-18T18:53:53.651Z,98.80
2022-12-18T18:59:09.628Z,94.15
2022-12-18T19:01:38.666Z,78.22
2022-12-18T19:04:08.199Z,82.68
2022-12-18T19:06:34.913Z,91.93
2022-12-18T19:09:05.021Z,75.68
2022-12-18T19:11:50.683Z,95.88
2022-12-18T19:14:17.520Z,72.22
2022-12-18T19:16:45.513Z,91.15
2022-12-18T19:19:13.570Z,81.38
2022-12-18T19:21:40.858Z,85.63
2022-12-18T19:24:10.793Z,95.25
2022-12-18T19:26:37.843Z,81.32
2022-12-18T19:29:12.105Z,97.00
2022-12-18T19:31:38.894Z,84.57
2022-12-18T19:34:07.145Z,85.57
2022-12-18T19:36:37.338Z,82.85
2022-12-18T19:39:10.250Z,90.55
2022-12-18T19:41:37.046Z,87.20
2022-12-18T19:44:08.278Z,74.82
2022-12-18T19:46:36.035Z,84.65
2022-12-18T19:49:05.752Z,86.93
2022-12-18T19:51:32.894Z,83.95
2022-12-18T19:54:01.863Z,90.95
2022-12-18T19:56:37.896Z,78.95
2022-12-18T19:59:05.463Z,87.07
2022-12-18T20:01:32.705Z,85.65
2022-12-18T20:04:01.096Z,88.40
2022-12-18T20:06:34.254Z,91.80
2022-12-18T20:09:04.297Z,98.07
2022-12-18T20:11:32.061Z,95.22
2022-12-18T20:14:03.603Z,88.88
2022-12-18T20:16:30.596Z,85.88
2022-12-18T20:18:58.407Z,89.70
2022-12-18T20:21:25.671Z,83.50
2022-12-18T20:23:52.412Z,96.30
2022-12-18T20:26:22.625Z,94.82
2022-12-18T20:28:49.365Z,94.53
2022-12-18T20:31:16.166Z,102.55
2022-12-18T20:33:43.296Z,94.10
2022-12-18T20:36:17.089Z,83.43
2022-12-18T20:38:48.438Z,107.50
2022-12-18T20:41:22.155Z,117.18
2022-12-18T20:43:48.789Z,101.97
2022-12-18T20:46:17.166Z,98.30
2022-12-18T20:48:44.916Z,93.05
2022-12-18T20:51:18.412Z,103.78
2022-12-18T20:53:46.442Z,103.68
2022-12-18T20:56:21.334Z,102.05
2022-12-18T20:58:49.626Z,93.47
2022-12-18T21:01:19.208Z,89.30
2022-12-18T21:03:46.683Z,96.38
2022-12-18T21:06:15.557Z,88.72
2022-12-18T21:08:42.540Z,95.03
2022-12-18T21:11:54.006Z,93.90
2022-12-18T21:14:23.860Z,91.57
2022-12-18T21:16:51.358Z,107.45
2022-12-18T21:19:20.907Z,96.57
2022-12-18T21:21:47.606Z,89.57
2022-12-18T21:24:14.781Z,91.78
2022-12-18T21:26:45.783Z,103.55
2022-12-18T21:29:20.969Z,94.07
2022-12-18T21:31:48.622Z,98.90
2022-12-18T21:34:21.387Z,111.82
2022-12-18T21:36:49.259Z,92.68
2022-12-18T21:39:16.360Z,102.60
2022-12-18T21:42:01.938Z,91.03
2022-12-18T21:44:29.132Z,93.65
2022-12-18T21:47:02.410Z,103.13
2022-12-18T21:49:36.167Z,104.70
2022-12-18T21:52:02.796Z,109.15
2022-12-18T21:54:30.175Z,106.97
2022-12-18T21:56:59.010Z,98.03
2022-12-18T21:59:35.023Z,99.32
2022-12-18T22:02:07.335Z,103.10
2022-12-18T22:04:34.294Z,98.63
2022-12-18T22:07:00.916Z,94.72
2022-12-18T22:09:28.229Z,94.38
2022-12-18T22:11:55.071Z,105.25
2022-12-18T22:14:22.235Z,104.88
2022-12-18T22:16:49.828Z,101.22
2022-12-18T22:19:17.914Z,97.60
2022-12-18T22:21:49.089Z,95.38
2022-12-18T22:24:19.726Z,100.55
2022-12-18T22:26:47.390Z,102.50
2022-12-18T22:29:41.374Z,97.40
2022-12-18T22:32:13.073Z,102.10
2022-12-18T22:34:41.852Z,98.97
2022-12-18T22:37:10.665Z,97.93
2022-12-18T22:39:37.246Z,103.97
2022-12-18T22:42:05.408Z,110.88
2022-12-18T22:44:35.065Z,97.70
2022-12-18T22:47:06.416Z,108.93
2022-12-18T22:49:34.805Z,100.60
2022-12-18T22:52:02.040Z,114.30
2022-12-18T22:54:28.625Z,108.93
2022-12-18T22:56:55.561Z,101.35
2022-12-18T22:59:23.323Z,98.55
2022-12-18T23:01:51.579Z,95.68
2022-12-18T23:04:30.600Z,107.32
2022-12-18T23:07:06.114Z,103.05
2022-12-18T23:09:33.436Z,112.85
2022-12-18T23:12:00.535Z,107.25
2022-12-18T23:14:28.256Z,101.00
2022-12-18T23:16:55.055Z,96.22
2022-12-18T23:19:23.583Z,107.15
2022-12-18T23:21:51.197Z,101.38
2022-12-18T23:24:17.969Z,99.97
2022-12-18T23:26:44.524Z,96.43
2022-12-18T23:29:11.272Z,106.07
2022-12-18T23:31:39.252Z,110.75
2022-12-18T23:34:06.490Z,92.80
2022-12-18T23:36:45.315Z,103.22
2022-12-18T23:39:27.550Z,103.90
2022-12-18T23:41:59.884Z,100.53
2022-12-18T23:44:26.729Z,99.00
2022-12-18T23:46:53.473Z,90.78
2022-12-18T23:49:20.112Z,105.90
2022-12-18T23:51:46.705Z,101.53
2022-12-18T23:54:13.338Z,100.75
2022-12-18T23:56:40.104Z,103.85
2022-12-18T23:59:06.771Z,97.53
